createdAt,value
2023-04-01T00:00:37.012Z,4.75
2023-04-01T00:03:39.805Z,4.97
2023-04-01T00:06:42.789Z,5.03
2023-04-01T00:09:45.979Z,6.55
2023-04-01T00:12:48.929Z,5.43
2023-04-01T00:15:54.630Z,5.40
2023-04-01T00:18:57.631Z,6.15
2023-04-01T00:22:00.968Z,5.75
2023-04-01T00:25:04.351Z,6.35
2023-04-01T00:28:07.222Z,5.00
2023-04-01T00:31:13.224Z,8.23
2023-04-01T00:34:16.213Z,5.18
2023-04-01T00:37:19.286Z,5.63
2023-04-01T00:40:29.143Z,6.15
2023-04-01T00:43:32.063Z,5.90
2023-04-01T00:46:36.645Z,5.65
2023-04-01T00:49:41.866Z,5.55
2023-04-01T00:52:45.392Z,5.75
2023-04-01T00:55:54.106Z,6.25
2023-04-01T00:59:01.234Z,5.60
2023-04-01T01:02:07.874Z,5.90
2023-04-01T01:05:13.811Z,6.28
2023-04-01T01:08:22.987Z,4.18
2023-04-01T01:11:37.015Z,6.00
2023-04-01T01:14:57.479Z,5.00
2023-04-01T01:18:10.190Z,4.97
2023-04-01T01:21:40.090Z,5.25
2023-04-01T01:24:56.688Z,5.72
2023-04-01T01:28:14.998Z,5.15
2023-04-01T01:31:25.867Z,5.73
2023-04-01T01:34:36.663Z,5.00
2023-04-01T01:37:43.185Z,5.90
2023-04-01T01:40:49.903Z,6.03
2023-04-01T01:43:54.523Z,5.30
2023-04-01T01:46:58.599Z,5.60
2023-04-01T01:50:02.909Z,4.57
2023-04-01T01:53:08.789Z,5.45
2023-04-01T01:56:13.648Z,6.82
2023-04-01T01:59:19.114Z,6.05
2023-04-01T02:02:23.767Z,5.77
2023-04-01T02:05:28.410Z,5.35
2023-04-01T02:08:37.578Z,4.85
2023-04-01T02:11:46.270Z,5.38
2023-04-01T02:14:54.095Z,4.90
2023-04-01T02:17:58.194Z,5.33
2023-04-01T02:21:02.765Z,4.47
2023-04-01T02:24:12.087Z,5.18
2023-04-01T02:27:15.014Z,4.53
2023-04-01T02:30:19.314Z,7.30
2023-04-01T02:33:23.045Z,5.27
2023-04-01T02:36:26.365Z,4.75
2023-04-01T02:39:30.688Z,6.63
2023-04-01T02:42:33.549Z,4.97
2023-04-01T02:45:36.320Z,3.97
2023-04-01T02:48:39.215Z,6.20
2023-04-01T02:51:42.040Z,4.80
2023-04-01T02:54:46.310Z,5.43
2023-04-01T02:57:49.160Z,4.53
2023-04-01T03:00:51.991Z,6.03
2023-04-01T03:03:55.046Z,5.60
2023-04-01T03:06:57.748Z,5.05
2023-04-01T03:10:01.996Z,5.65
2023-04-01T03:13:05.035Z,5.57
2023-04-01T03:16:08.150Z,5.68
2023-04-01T03:19:11.046Z,5.50
2023-04-01T03:22:13.760Z,6.38
2023-04-01T03:25:18.038Z,6.95
2023-04-01T03:28:20.746Z,6.25
2023-04-01T03:31:23.991Z,6.63
2023-04-01T03:34:27.216Z,6.27
2023-04-01T03:37:29.970Z,6.57
2023-04-01T03:40:38.163Z,6.55
2023-04-01T03:43:40.917Z,6.88
2023-04-01T03:46:43.860Z,7.00
2023-04-01T03:49:46.645Z,6.50
2023-04-01T03:52:49.356Z,6.57
2023-04-01T03:55:53.558Z,6.78
2023-04-01T03:58:56.397Z,6.63
2023-04-01T04:01:59.349Z,5.40
2023-04-01T04:05:02.084Z,6.67
2023-04-01T04:08:05.216Z,6.10
2023-04-01T04:11:09.675Z,6.18
2023-04-01T04:14:12.397Z,7.38
2023-04-01T04:17:17.252Z,6.10
2023-04-01T04:20:20.541Z,6.73
2023-04-01T04:23:23.919Z,7.28
2023-04-01T04:26:28.429Z,7.10
2023-04-01T04:29:31.774Z,6.28
2023-04-01T04:32:34.618Z,7.25
2023-04-01T04:35:37.367Z,6.33
2023-04-01T04:38:40.224Z,6.53
2023-04-01T04:41:44.597Z,6.88
2023-04-01T04:44:47.274Z,5.97
2023-04-01T04:47:50.088Z,6.43
2023-04-01T04:50:53.321Z,7.93
2023-04-01T04:53:56.144Z,6.80
2023-04-01T04:57:00.403Z,7.72
2023-04-01T05:00:03.216Z,7.30
2023-04-01T05:03:06.306Z,6.45
2023-04-01T05:06:10.721Z,6.73
2023-04-01T05:09:13.639Z,7.13
2023-04-01T05:12:17.770Z,7.10
2023-04-01T05:15:20.810Z,6.82
2023-04-01T05:18:23.710Z,6.45
2023-04-01T05:21:26.457Z,7.00
2023-04-01T05:24:29.365Z,6.07
2023-04-01T05:27:33.667Z,7.85
2023-04-01T05:30:36.602Z,6.72
2023-04-01T05:33:39.445Z,5.47
2023-04-01T05:36:42.626Z,7.30
2023-04-01T05:39:45.562Z,6.18
2023-04-01T05:42:49.664Z,7.57
2023-04-01T05:45:52.525Z,6.85
2023-04-01T05:48:55.408Z,7.50
2023-04-01T05:51:58.519Z,6.30
2023-04-01T05:55:01.430Z,6.68
2023-04-01T05:58:05.701Z,6.85
2023-04-01T06:01:14.152Z,7.10
2023-04-01T06:04:20.242Z,6.10
2023-04-01T06:07:23.092Z,6.97
2023-04-01T06:10:50.446Z,7.30
2023-04-01T06:14:12.123Z,6.63
2023-04-01T06:17:29.053Z,6.28
2023-04-01T06:20:44.001Z,8.10
2023-04-01T06:23:59.738Z,6.63
2023-04-01T06:27:13.930Z,8.98
2023-04-01T06:30:35.139Z,7.32
2023-04-01T06:33:52.689Z,8.15
2023-04-01T06:37:13.318Z,8.73
2023-04-01T06:40:33.709Z,6.43
2023-04-01T06:43:45.703Z,5.68
2023-04-01T06:46:59.479Z,5.07
2023-04-01T06:50:13.658Z,5.47
2023-04-01T06:53:23.532Z,6.47
2023-04-01T06:56:29.135Z,4.90
2023-04-01T06:59:36.089Z,5.57
2023-04-01T07:02:43.658Z,5.13
2023-04-01T07:05:46.580Z,5.75
2023-04-01T07:08:51.639Z,6.97
2023-04-01T07:11:58.933Z,4.53
2023-04-01T07:15:06.510Z,4.28
2023-04-01T07:18:17.668Z,5.78
2023-04-01T07:21:31.899Z,4.10
2023-04-01T07:24:36.721Z,3.53
2023-04-01T07:27:39.596Z,3.42
2023-04-01T07:30:52.527Z,4.57
2023-04-01T07:34:05.690Z,3.92
2023-04-01T07:37:13.023Z,4.68
2023-04-01T07:40:28.564Z,3.37
2023-04-01T07:44:04.713Z,4.65
2023-04-01T07:47:34.422Z,3.63
2023-04-01T07:50:43.416Z,4.20
2023-04-01T07:53:51.322Z,4.07
2023-04-01T07:57:00.862Z,8.47
2023-04-01T08:00:11.967Z,6.95
2023-04-01T08:03:36.032Z,4.50
2023-04-01T08:06:46.682Z,3.28
2023-04-01T08:09:56.213Z,3.40
2023-04-01T08:13:08.230Z,3.93
2023-04-01T08:16:17.028Z,4.65
2023-04-01T08:19:31.418Z,3.55
2023-04-01T08:22:42.097Z,3.20
2023-04-01T08:25:52.335Z,4.32
2023-04-01T08:29:01.501Z,3.70
2023-04-01T08:32:12.600Z,4.60
2023-04-01T08:35:27.061Z,4.15
2023-04-01T08:38:37.181Z,5.28
2023-04-01T08:42:02.912Z,4.25
2023-04-01T08:45:27.700Z,4.07
2023-04-01T08:48:52.951Z,4.25
2023-04-01T08:52:18.164Z,4.53
2023-04-01T08:55:58.487Z,5.30
2023-04-01T08:59:26.639Z,5.88
2023-04-01T09:02:52.288Z,6.80
2023-04-01T09:06:23.896Z,7.45
2023-04-01T09:09:57.294Z,8.07
2023-04-01T09:13:16.345Z,8.40
2023-04-01T09:16:39.527Z,8.13
2023-04-01T09:20:00.538Z,9.03
2023-04-01T09:23:19.846Z,8.13
2023-04-01T09:26:39.521Z,8.38
2023-04-01T09:30:22.524Z,9.60
2023-04-01T09:33:59.691Z,10.73
2023-04-01T09:37:20.925Z,11.70
2023-04-01T09:40:33.682Z,11.05
2023-04-01T09:43:55.824Z,11.52
2023-04-01T09:47:13.522Z,14.38
2023-04-01T09:50:31.943Z,12.45
2023-04-01T09:53:54.324Z,11.00
2023-04-01T09:57:38.834Z,9.95
2023-04-01T10:00:57.241Z,9.90
2023-04-01T10:04:28.902Z,10.77
2023-04-01T10:07:55.676Z,11.77
2023-04-01T10:11:16.318Z,10.43
2023-04-01T10:14:42.109Z,10.90
2023-04-01T10:18:10.894Z,10.35
2023-04-01T10:21:58.325Z,8.82
2023-04-01T10:25:37.377Z,9.38
2023-04-01T10:29:27.426Z,8.37
2023-04-01T10:33:16.941Z,8.10
2023-04-01T10:36:48.103Z,9.98
2023-04-01T10:40:44.528Z,11.88
2023-04-01T10:44:13.850Z,10.43
2023-04-01T10:47:42.008Z,10.33
2023-04-01T10:51:07.432Z,8.63
2023-04-01T10:54:23.233Z,10.13
2023-04-01T10:58:00.927Z,7.95
2023-04-01T11:01:54.896Z,8.30
2023-04-01T11:05:38.227Z,7.57
2023-04-01T11:09:28.604Z,7.75
2023-04-01T11:13:12.278Z,7.47
2023-04-01T11:16:52.752Z,7.53
2023-04-01T11:20:13.154Z,8.13
2023-04-01T11:23:54.985Z,7.20
2023-04-01T11:27:24.401Z,7.60
2023-04-01T11:30:46.365Z,7.67
2023-04-01T11:33:56.941Z,7.65
2023-04-01T11:37:09.118Z,7.53
2023-04-01T11:40:30.236Z,8.00
2023-04-01T11:43:39.681Z,8.73
2023-04-01T11:46:51.545Z,8.53
2023-04-01T11:50:05.167Z,8.18
2023-04-01T11:53:25.380Z,8.20
2023-04-01T11:56:52.268Z,8.50
2023-04-01T12:00:17.801Z,9.63
2023-04-01T12:03:37.482Z,9.17
2023-04-01T12:06:47.154Z,8.70
2023-04-01T12:09:57.860Z,9.23
2023-04-01T12:13:07.559Z,9.40
2023-04-01T12:16:22.904Z,8.67
2023-04-01T12:19:37.322Z,9.87
2023-04-01T12:22:51.447Z,9.93
2023-04-01T12:26:06.426Z,11.77
2023-04-01T12:29:39.621Z,9.57
2023-04-01T12:32:48.161Z,11.03
2023-04-01T12:36:03.761Z,9.97
2023-04-01T12:39:35.081Z,10.40
2023-04-01T12:42:51.335Z,9.43
2023-04-01T12:46:05.707Z,12.00
2023-04-01T12:49:25.135Z,11.60
2023-04-01T12:52:39.660Z,11.50
2023-04-01T12:55:43.744Z,10.82
2023-04-01T12:59:16.599Z,11.82
2023-04-01T13:02:34.137Z,10.77
2023-04-01T13:06:06.468Z,11.37
2023-04-01T13:09:20.725Z,10.27
2023-04-01T13:12:39.289Z,11.38
2023-04-01T13:15:46.849Z,10.45
2023-04-01T13:19:00.827Z,10.48
2023-04-01T13:22:13.093Z,9.37
2023-04-01T13:25:28.904Z,10.57
2023-04-01T13:28:38.155Z,9.85
2023-04-01T13:32:05.585Z,9.15
2023-04-01T13:35:24.105Z,11.30
2023-04-01T13:38:59.732Z,9.60
2023-04-01T13:42:15.042Z,9.07
2023-04-01T13:45:23.342Z,8.48
2023-04-01T13:48:51.306Z,7.90
2023-04-01T13:52:19.756Z,6.95
2023-04-01T13:55:36.374Z,6.17
2023-04-01T13:58:57.728Z,7.10
2023-04-01T14:02:30.208Z,6.50
2023-04-01T14:05:53.645Z,6.82
2023-04-01T14:09:19.920Z,6.97
2023-04-01T14:12:31.994Z,7.93
2023-04-01T14:15:49.417Z,6.90
2023-04-01T14:19:05.098Z,7.32
2023-04-01T14:22:19.284Z,6.80
2023-04-01T14:25:45.502Z,7.20
2023-04-01T14:28:55.817Z,6.70
2023-04-01T14:32:08.811Z,6.40
2023-04-01T14:35:25.925Z,5.88
2023-04-01T14:38:41.796Z,7.53
2023-04-01T14:41:50.543Z,6.30
2023-04-01T14:45:27.116Z,7.90
2023-04-01T14:48:33.933Z,7.30
2023-04-01T14:51:41.025Z,6.85
2023-04-01T14:54:46.576Z,8.45
2023-04-01T14:58:06.644Z,8.63
2023-04-01T15:01:24.427Z,8.03
2023-04-01T15:04:47.236Z,8.03
2023-04-01T15:08:11.906Z,6.75
2023-04-01T15:11:27.190Z,7.32
2023-04-01T15:14:53.838Z,8.87
2023-04-01T15:18:06.348Z,7.90
2023-04-01T15:21:23.607Z,8.20
2023-04-01T15:24:43.207Z,8.68
2023-04-01T15:27:53.581Z,8.25
2023-04-01T15:31:02.739Z,6.37
2023-04-01T15:34:24.068Z,7.20
2023-04-01T15:37:40.924Z,7.85
2023-04-01T15:40:49.923Z,7.82
2023-04-01T15:43:54.075Z,8.45
2023-04-01T15:47:00.338Z,9.20
2023-04-01T15:50:28.322Z,8.33
2023-04-01T15:53:48.733Z,7.47
2023-04-01T15:57:04.839Z,8.77
2023-04-01T16:00:15.597Z,7.53
2023-04-01T16:03:35.457Z,8.17
2023-04-01T16:07:06.169Z,8.97
2023-04-01T16:10:21.643Z,8.25
2023-04-01T16:13:43.713Z,8.65
2023-04-01T16:16:59.362Z,8.25
2023-04-01T16:20:15.623Z,7.70
2023-04-01T16:23:27.230Z,8.70
2023-04-01T16:26:38.462Z,9.27
2023-04-01T16:29:50.207Z,9.03
2023-04-01T16:32:57.032Z,8.07
2023-04-01T16:36:08.356Z,7.55
2023-04-01T16:39:33.491Z,8.90
2023-04-01T16:42:45.539Z,9.40
2023-04-01T16:45:59.008Z,8.10
2023-04-01T16:49:06.668Z,7.65
2023-04-01T16:52:18.819Z,8.07
2023-04-01T16:55:23.495Z,7.43
2023-04-01T16:58:29.707Z,7.40
2023-04-01T17:01:42.801Z,7.40
2023-04-01T17:04:49.039Z,7.18
2023-04-01T17:08:13.314Z,8.07
2023-04-01T17:11:21.896Z,7.60
2023-04-01T17:14:30.664Z,7.10
2023-04-01T17:17:40.796Z,8.43
2023-04-01T17:20:48.626Z,9.63
2023-04-01T17:23:55.858Z,8.45
2023-04-01T17:27:08.610Z,7.20
2023-04-01T17:30:21.629Z,6.83
2023-04-01T17:33:59.573Z,6.75
2023-04-01T17:37:11.243Z,10.73
2023-04-01T17:40:36.316Z,8.13
2023-04-01T17:43:46.891Z,6.90
2023-04-01T17:47:15.568Z,9.67
2023-04-01T17:50:31.792Z,8.13
2023-04-01T17:53:45.738Z,7.80
2023-04-01T17:57:04.362Z,7.57
2023-04-01T18:00:22.989Z,6.73
2023-04-01T18:03:54.297Z,7.37
2023-04-01T18:07:24.322Z,7.75
2023-04-01T18:10:33.526Z,7.07
2023-04-01T18:14:00.822Z,6.97
2023-04-01T18:17:25.898Z,7.10
2023-04-01T18:20:37.748Z,6.07
2023-04-01T18:23:59.151Z,6.68
2023-04-01T18:27:09.580Z,7.85
2023-04-01T18:30:18.321Z,8.10
2023-04-01T18:33:27.957Z,9.47
2023-04-01T18:36:42.595Z,8.17
2023-04-01T18:39:52.152Z,8.63
2023-04-01T18:43:07.573Z,7.93
2023-04-01T18:46:18.872Z,7.63
2023-04-01T18:49:28.177Z,7.93
2023-04-01T18:52:37.145Z,7.23
2023-04-01T18:55:44.114Z,9.30
2023-04-01T18:58:51.108Z,8.48
2023-04-01T19:02:05.163Z,9.00
2023-04-01T19:05:14.327Z,9.80
2023-04-01T19:08:27.206Z,10.23
2023-04-01T19:11:41.965Z,10.68
2023-04-01T19:14:55.988Z,9.20
2023-04-01T19:18:20.002Z,11.20
2023-04-01T19:21:28.487Z,9.57
2023-04-01T19:25:01.188Z,12.10
2023-04-01T19:28:17.856Z,11.90
2023-04-01T19:31:36.356Z,11.30
2023-04-01T19:34:51.957Z,12.88
2023-04-01T19:38:01.437Z,13.03
2023-04-01T19:41:16.975Z,11.70
2023-04-01T19:44:35.920Z,12.55
2023-04-01T19:47:53.230Z,10.90
2023-04-01T19:51:03.321Z,12.77
2023-04-01T19:54:21.581Z,11.37
2023-04-01T19:57:36.911Z,12.03
2023-04-01T20:00:44.124Z,12.70
2023-04-01T20:03:50.298Z,13.05
2023-04-01T20:06:59.427Z,14.25
2023-04-01T20:10:11.834Z,11.33
2023-04-01T20:13:24.763Z,11.43
2023-04-01T20:16:57.400Z,14.75
2023-04-01T20:20:02.599Z,13.57
2023-04-01T20:23:36.707Z,13.07
2023-04-01T20:26:43.247Z,14.23
2023-04-01T20:30:01.320Z,12.70
2023-04-01T20:33:26.340Z,12.85
2023-04-01T20:36:37.054Z,15.13
2023-04-01T20:40:01.118Z,13.90
2023-04-01T20:43:30.704Z,14.37
2023-04-01T20:46:47.083Z,15.13
2023-04-01T20:50:00.477Z,13.27
2023-04-01T20:53:10.866Z,12.55
2023-04-01T20:56:34.939Z,11.57
2023-04-01T21:00:00.066Z,14.53
2023-04-01T21:03:17.920Z,11.87
2023-04-01T21:06:46.855Z,14.30
2023-04-01T21:10:11.045Z,15.10
2023-04-01T21:13:35.556Z,11.38
2023-04-01T21:16:46.085Z,12.23
2023-04-01T21:20:07.514Z,12.37
2023-04-01T21:23:40.907Z,12.52
2023-04-01T21:26:54.410Z,12.35
2023-04-01T21:30:17.725Z,12.27
2023-04-01T21:33:43.374Z,13.60
2023-04-01T21:37:03.854Z,10.73
2023-04-01T21:40:34.718Z,10.73
2023-04-01T21:43:52.139Z,11.57
2023-04-01T21:47:17.156Z,11.82
2023-04-01T21:51:04.285Z,12.77
2023-04-01T21:54:33.134Z,12.20
2023-04-01T21:58:03.178Z,10.63
2023-04-01T22:01:24.054Z,11.18
2023-04-01T22:04:50.587Z,11.57
2023-04-01T22:08:02.830Z,11.97
2023-04-01T22:11:13.443Z,9.87
2023-04-01T22:14:22.800Z,12.35
2023-04-01T22:17:32.413Z,11.82
2023-04-01T22:20:46.335Z,13.30
2023-04-01T22:23:58.761Z,11.13
2023-04-01T22:27:08.269Z,10.87
2023-04-01T22:30:20.703Z,10.05
2023-04-01T22:33:34.066Z,10.60
2023-04-01T22:36:47.909Z,11.40
2023-04-01T22:40:12.515Z,13.07
2023-04-01T22:43:22.826Z,10.87
2023-04-01T22:46:46.106Z,9.38
2023-04-01T22:49:53.074Z,10.80
2023-04-01T22:53:02.932Z,11.95
2023-04-01T22:56:10.658Z,11.50
2023-04-01T22:59:21.178Z,9.57
2023-04-01T23:02:29.573Z,10.02
2023-04-01T23:05:33.869Z,9.65
2023-04-01T23:08:53.748Z,10.48
2023-04-01T23:11:59.749Z,8.83
2023-04-01T23:15:03.902Z,9.00
2023-04-01T23:18:22.198Z,8.82
2023-04-01T23:21:32.638Z,9.10
2023-04-01T23:24:43.141Z,8.73
2023-04-01T23:27:52.999Z,9.20
2023-04-01T23:30:56.098Z,8.65
2023-04-01T23:34:01.659Z,9.05
2023-04-01T23:37:07.553Z,9.47
2023-04-01T23:40:15.856Z,7.68
2023-04-01T23:43:26.782Z,8.95
2023-04-01T23:46:32.334Z,9.07
2023-04-01T23:49:40.836Z,10.02
2023-04-01T23:52:48.286Z,8.60
2023-04-01T23:55:54.045Z,8.70
2023-04-01T23:58:58.265Z,9.63
